Time;durP1;ratioP1;P1;durP2;ratioP2;P2;SDS_P1;SDS_P2;PMS_P1;PMS_P2;Temp;Humidity;BMP_temperature;BMP_pressure;BME280_temperature;BME280_humidity;BME280_pressure;Samples;Min_cycle;Max_cycle;Signal;HPM_P1;HPM_P2
2022/06/08 00:00:12;;;;;;;133.15;47.25;;;;;;;14.21;100.00;101044.25;5019279;28;20029;-48
2022/06/08 00:02:39;;;;;;;131.20;46.30;;;;;;;14.12;100.00;101041.63;5036694;28;20388;-46
2022/06/08 00:05:06;;;;;;;140.68;47.60;;;;;;;14.09;100.00;101047.34;5034583;28;20703;-47
2022/06/08 00:07:31;;;;;;;153.23;48.70;;;;;;;14.10;100.00;101032.06;5036607;28;20020;-48
2022/06/08 00:09:58;;;;;;;146.40;50.20;;;;;;;14.17;100.00;101033.00;5036626;28;20376;-46
2022/06/08 00:12:24;;;;;;;150.40;49.15;;;;;;;14.20;100.00;101038.03;5034398;28;20025;-47
2022/06/08 00:14:49;;;;;;;147.88;48.00;;;;;;;14.27;100.00;101025.53;5014392;28;20040;-49
2022/06/08 00:17:14;;;;;;;154.73;50.33;;;;;;;14.26;100.00;101025.75;5016466;28;20120;-48
2022/06/08 00:19:40;;;;;;;148.10;48.83;;;;;;;14.28;100.00;101021.00;5016327;28;20037;-51
2022/06/08 00:22:06;;;;;;;147.70;48.05;;;;;;;14.27;100.00;101025.53;5013495;28;20018;-48
2022/06/08 00:24:31;;;;;;;159.68;50.55;;;;;;;14.24;100.00;101022.38;5008698;28;20033;-49
2022/06/08 00:26:57;;;;;;;152.80;51.40;;;;;;;14.16;100.00;101024.13;5015708;28;20017;-48
2022/06/08 00:29:23;;;;;;;149.60;49.92;;;;;;;14.18;100.00;101022.09;5016427;28;20735;-49
2022/06/08 00:31:48;;;;;;;153.40;50.03;;;;;;;14.14;100.00;101014.59;5016842;28;20120;-50
2022/06/08 00:34:13;;;;;;;153.60;50.75;;;;;;;14.09;100.00;101007.06;5015175;28;20033;-49
2022/06/08 00:36:39;;;;;;;151.90;51.35;;;;;;;14.07;100.00;101016.31;5016624;28;20091;-49
2022/06/08 00:39:04;;;;;;;164.77;53.38;;;;;;;14.04;100.00;101009.44;5016070;28;20026;-46
2022/06/08 00:41:49;;;;;;;159.13;52.50;;;;;;;14.03;100.00;101010.47;5016941;28;20036;-47
2022/06/08 00:44:34;;;;;;;162.85;54.15;;;;;;;13.99;100.00;100996.56;5016376;28;20482;-50
2022/06/08 00:47:02;;;;;;;167.90;54.42;;;;;;;14.00;100.00;101002.75;5010284;28;20036;-49
2022/06/08 00:49:46;;;;;;;162.55;53.45;;;;;;;13.95;100.00;101005.13;5019574;28;20029;-47
2022/06/08 00:52:13;;;;;;;172.35;55.35;;;;;;;13.96;100.00;100996.09;5019385;28;20059;-46
2022/06/08 00:54:42;;;;;;;169.38;56.67;;;;;;;13.92;100.00;100992.09;5018224;28;20104;-48
2022/06/08 00:57:31;;;;;;;171.48;57.72;;;;;;;13.95;100.00;100997.09;5013536;28;20057;-50
2022/06/08 01:00:04;;;;;;;167.32;56.78;;;;;;;13.92;100.00;100990.25;5008957;28;20041;-49
2022/06/08 01:02:30;;;;;;;172.27;57.42;;;;;;;13.91;100.00;100990.41;5019879;28;20025;-49
2022/06/08 01:05:15;;;;;;;174.65;58.30;;;;;;;13.90;100.00;100994.09;5015725;28;20411;-44
2022/06/08 01:07:41;;;;;;;180.57;60.83;;;;;;;13.79;100.00;100977.41;5019906;28;20040;-50
2022/06/08 01:10:13;;;;;;;174.48;58.05;;;;;;;13.83;100.00;100982.41;5019931;28;20436;-49
2022/06/08 01:12:39;;;;;;;190.18;61.38;;;;;;;13.75;100.00;100977.97;5019666;28;20083;-49
2022/06/08 01:15:05;;;;;;;178.25;59.28;;;;;;;13.75;100.00;100981.47;5019827;28;20348;-49
2022/06/08 01:17:30;;;;;;;183.88;58.47;;;;;;;13.75;100.00;100964.53;5019435;28;20025;-48
2022/06/08 01:19:55;;;;;;;185.73;61.92;;;;;;;13.75;100.00;100969.91;5018099;28;20029;-48
2022/06/08 01:22:21;;;;;;;185.10;60.65;;;;;;;13.75;100.00;100967.22;5019516;28;20476;-49
2022/06/08 01:24:49;;;;;;;188.75;61.58;;;;;;;13.73;100.00;100963.88;5019196;28;20132;-50
2022/06/08 01:27:39;;;;;;;190.75;61.03;;;;;;;13.76;100.00;100958.16;5019942;28;20084;-49
2022/06/08 01:30:23;;;;;;;176.00;57.13;;;;;;;13.73;100.00;100945.94;5017631;28;20550;-46
2022/06/08 01:33:10;;;;;;;173.93;57.08;;;;;;;13.70;100.00;100948.97;5018740;28;20136;-51
2022/06/08 01:35:57;;;;;;;182.15;59.03;;;;;;;13.70;100.00;100946.28;5006172;28;20037;-48
2022/06/08 01:38:33;;;;;;;181.77;57.80;;;;;;;13.68;100.00;100937.59;5016401;28;20076;-50
2022/06/08 01:41:10;;;;;;;193.45;59.42;;;;;;;13.69;100.00;100931.19;5018257;28;20002;-45
2022/06/08 01:44:03;;;;;;;176.32;58.65;;;;;;;13.68;100.00;100926.00;5019282;28;20464;-50
2022/06/08 01:46:33;;;;;;;185.65;59.65;;;;;;;13.65;100.00;100931.75;5016070;28;20173;-49
2022/06/08 01:49:10;;;;;;;178.45;57.85;;;;;;;13.60;100.00;100935.78;5016172;28;20399;-50
2022/06/08 01:51:50;;;;;;;176.40;57.28;;;;;;;13.61;100.00;100923.19;5017854;28;20040;-50
2022/06/08 01:54:35;;;;;;;183.48;58.60;;;;;;;13.62;100.00;100916.81;5018622;28;20484;-51
2022/06/08 01:57:31;;;;;;;175.07;57.05;;;;;;;13.59;100.00;100922.53;5017835;28;20045;-50
2022/06/08 02:00:18;;;;;;;181.43;58.60;;;;;;;13.52;100.00;100916.22;5014010;28;20076;-51
2022/06/08 02:02:49;;;;;;;176.07;57.20;;;;;;;13.51;100.00;100910.03;5018159;28;20024;-48
2022/06/08 02:05:33;;;;;;;;;;;;;;;13.56;100.00;100907.66;5019937;28;20032;-48
2022/06/08 02:08:25;;;;;;;160.05;53.10;;;;;;;13.52;100.00;100900.94;5017925;28;20363;-49
2022/06/08 02:11:11;;;;;;;182.70;56.67;;;;;;;13.53;100.00;100899.13;5016092;28;20029;-47
2022/06/08 02:13:44;;;;;;;175.35;56.03;;;;;;;13.55;100.00;100891.72;5017675;28;20025;-48
2022/06/08 02:16:41;;;;;;;178.77;55.53;;;;;;;13.58;100.00;100888.69;5017167;28;20021;-47
2022/06/08 02:19:11;;;;;;;184.80;57.35;;;;;;;13.60;100.00;100878.59;5001683;28;20152;-47
2022/06/08 02:21:44;;;;;;;188.65;57.40;;;;;;;13.58;100.00;100873.41;5018893;28;20128;-49
2022/06/08 02:24:15;;;;;;;181.07;57.53;;;;;;;13.61;100.00;100866.84;5016340;28;20033;-48
2022/06/08 02:26:53;;;;;;;172.15;55.55;;;;;;;13.58;100.00;100868.03;5019360;28;20040;-49
2022/06/08 02:29:35;;;;;;;168.68;54.85;;;;;;;13.57;100.00;100862.84;5018115;28;20168;-48
2022/06/08 02:34:27;;;;;;;181.77;56.15;;;;;;;13.57;100.00;100862.84;5016279;28;20052;-48
2022/06/08 02:34:58;;;;;;;179.00;54.10;;;;;;;13.51;100.00;100851.00;5012874;28;20044;-49
2022/06/08 02:37:28;;;;;;;171.50;54.42;;;;;;;13.50;100.00;100853.88;5018490;28;20475;-49
2022/06/08 02:40:11;;;;;;;169.18;54.67;;;;;;;13.44;100.00;100850.03;5017826;28;20405;-49
2022/06/08 02:42:41;;;;;;;174.15;54.60;;;;;;;13.41;100.00;100850.41;5015341;28;20040;-49
2022/06/08 02:45:13;;;;;;;170.80;53.45;;;;;;;13.36;100.00;100842.91;5013184;28;20098;-46
2022/06/08 02:47:41;;;;;;;162.93;52.85;;;;;;;13.35;100.00;100845.75;5017573;28;20021;-47
2022/06/08 02:50:17;;;;;;;166.65;51.95;;;;;;;13.30;100.00;100829.34;5018123;28;20040;-50
2022/06/08 02:52:46;;;;;;;165.35;52.97;;;;;;;13.32;100.00;100846.94;5016698;28;20222;-50
2022/06/08 02:55:19;;;;;;;162.15;50.97;;;;;;;13.32;100.00;100840.75;5018254;28;20476;-48
2022/06/08 02:58:09;;;;;;;161.02;50.70;;;;;;;13.26;100.00;100831.53;5018409;28;20113;-47
2022/06/08 03:00:45;;;;;;;158.70;50.25;;;;;;;13.30;100.00;100842.75;5018253;28;20040;-48
2022/06/08 03:03:31;;;;;;;160.93;49.70;;;;;;;13.25;100.00;100840.59;5014157;28;20083;-49
2022/06/08 03:06:23;;;;;;;147.52;48.60;;;;;;;13.27;100.00;100832.38;5015166;28;20117;-50
2022/06/08 03:08:55;;;;;;;156.23;48.50;;;;;;;13.25;100.00;100829.88;5016544;28;20033;-49
2022/06/08 03:11:23;;;;;;;151.57;47.55;;;;;;;13.23;100.00;100816.63;5018180;28;20048;-48
2022/06/08 03:13:54;;;;;;;148.77;48.05;;;;;;;13.22;100.00;100825.72;5012609;28;20073;-47
2022/06/08 03:16:39;;;;;;;145.50;47.83;;;;;;;13.21;100.00;100828.56;5018185;28;20075;-50
2022/06/08 03:19:06;;;;;;;154.18;49.40;;;;;;;13.19;100.00;100827.91;5015899;28;20099;-48
2022/06/08 03:21:31;;;;;;;142.00;45.90;;;;;;;13.16;100.00;100820.22;5017440;28;20022;-50
2022/06/08 03:23:57;;;;;;;137.93;45.20;;;;;;;13.15;100.00;100830.13;5017098;28;20055;-48
2022/06/08 03:26:25;;;;;;;141.20;44.72;;;;;;;13.13;100.00;100826.75;5016129;28;20103;-50
2022/06/08 03:28:51;;;;;;;136.85;43.47;;;;;;;13.12;100.00;100824.25;5017189;28;20053;-48
2022/06/08 03:31:16;;;;;;;133.65;45.03;;;;;;;13.11;100.00;100822.59;5017487;28;20052;-47
2022/06/08 03:33:42;;;;;;;135.32;44.63;;;;;;;13.13;100.00;100828.63;5016854;28;20040;-46
2022/06/08 03:36:07;;;;;;;137.25;44.00;;;;;;;13.08;100.00;100829.16;5015292;28;20029;-48
2022/06/08 03:38:34;;;;;;;140.30;44.25;;;;;;;13.06;100.00;100815.91;5012190;28;20556;-49
2022/06/08 03:40:59;;;;;;;134.50;45.38;;;;;;;13.13;100.00;100831.31;5016953;28;20033;-49
2022/06/08 03:43:25;;;;;;;137.40;44.88;;;;;;;13.15;100.00;100829.25;5017463;28;20253;-49
2022/06/08 03:45:55;;;;;;;140.45;44.95;;;;;;;13.19;100.00;100825.22;5015570;28;20476;-49
2022/06/08 03:48:21;;;;;;;133.77;44.50;;;;;;;13.26;100.00;100826.19;5007222;28;20387;-48
2022/06/08 03:50:50;;;;;;;142.70;43.80;;;;;;;13.37;100.00;100822.25;5015651;28;20020;-47
2022/06/08 03:53:26;;;;;;;128.82;42.78;;;;;;;13.40;100.00;100821.91;5011419;28;20513;-49
2022/06/08 03:55:52;;;;;;;129.63;42.95;;;;;;;13.43;100.00;100833.09;5018653;28;20024;-47
2022/06/08 03:58:20;;;;;;;129.90;42.83;;;;;;;13.41;100.00;100837.00;5017188;28;20072;-49
2022/06/08 04:00:46;;;;;;;123.28;38.35;;;;;;;13.47;100.00;100832.75;5017665;28;20017;-47
2022/06/08 04:03:12;;;;;;;107.57;37.97;;;;;;;13.46;100.00;100836.44;5016996;28;20342;-48
2022/06/08 04:05:38;;;;;;;104.85;37.05;;;;;;;13.50;100.00;100829.72;5017673;28;20455;-49
2022/06/08 04:08:04;;;;;;;106.82;37.88;;;;;;;13.52;100.00;100815.09;5013201;28;20029;-46
2022/06/08 04:10:29;;;;;;;99.78;34.88;;;;;;;13.57;100.00;100818.06;5017373;28;20392;-47
2022/06/08 04:12:55;;;;;;;106.32;35.75;;;;;;;13.59;100.00;100817.88;5015945;28;20068;-48
2022/06/08 04:18:05;;;;;;;89.80;32.03;;;;;;;13.64;100.00;100811.97;5013267;28;20137;-48
2022/06/08 04:20:30;;;;;;;102.68;32.78;;;;;;;13.67;100.00;100806.25;5017246;28;20100;-49
2022/06/08 04:22:56;;;;;;;99.80;31.05;;;;;;;13.70;100.00;100801.34;5016253;28;20029;-45
2022/06/08 04:25:21;;;;;;;85.05;31.40;;;;;;;13.73;100.00;100805.50;5017077;28;20032;-49
2022/06/08 04:27:47;;;;;;;86.53;31.75;;;;;;;13.77;100.00;100804.97;5016642;28;20087;-46
2022/06/08 04:30:12;;;;;;;80.88;31.67;;;;;;;13.82;100.00;100801.72;5017847;28;20026;-47
2022/06/08 04:32:37;;;;;;;97.95;31.17;;;;;;;13.88;100.00;100805.53;5019845;28;20098;-50
2022/06/08 04:35:03;;;;;;;81.95;29.83;;;;;;;13.93;100.00;100805.81;5020787;28;20451;-49
2022/06/08 04:37:28;;;;;;;82.43;31.20;;;;;;;13.98;100.00;100809.63;5016850;28;20305;-47
2022/06/08 04:39:54;;;;;;;72.45;28.13;;;;;;;14.01;100.00;100803.03;5016527;28;20032;-50
2022/06/08 04:42:19;;;;;;;72.00;28.88;;;;;;;14.02;100.00;100796.66;5020444;28;20506;-49
2022/06/08 04:44:45;;;;;;;66.57;26.85;;;;;;;14.05;100.00;100807.00;5033470;28;20083;-45
2022/06/08 04:47:10;;;;;;;70.53;27.98;;;;;;;14.09;100.00;100800.28;5033449;28;20831;-49
2022/06/08 04:49:36;;;;;;;64.72;27.15;;;;;;;14.13;100.00;100795.34;5021751;28;20044;-50
2022/06/08 04:52:02;;;;;;;79.88;27.38;;;;;;;14.21;100.00;100792.56;5019180;28;20483;-51
2022/06/08 04:54:27;;;;;;;64.07;27.75;;;;;;;14.27;100.00;100789.13;5016501;28;20115;-49
2022/06/08 04:56:53;;;;;;;70.43;27.08;;;;;;;14.30;100.00;100779.88;5016388;28;20089;-48
2022/06/08 04:59:18;;;;;;;67.63;25.40;;;;;;;14.36;100.00;100777.28;5015865;28;20531;-50
2022/06/08 05:01:43;;;;;;;58.83;25.65;;;;;;;14.43;100.00;100785.41;5015318;28;20108;-49
2022/06/08 05:04:09;;;;;;;76.93;26.30;;;;;;;14.47;100.00;100784.00;5017102;28;20032;-50
2022/06/08 05:06:34;;;;;;;69.53;25.95;;;;;;;14.53;100.00;100779.75;5034855;28;20032;-48
2022/06/08 05:08:59;;;;;;;61.50;24.60;;;;;;;14.57;100.00;100781.03;5025098;28;20067;-50
2022/06/08 05:11:25;;;;;;;70.70;25.20;;;;;;;14.64;100.00;100776.59;5031832;28;20022;-47
2022/06/08 05:13:50;;;;;;;65.75;25.05;;;;;;;14.70;100.00;100770.47;5018086;28;20518;-49
2022/06/08 05:16:15;;;;;;;75.25;27.10;;;;;;;14.73;100.00;100767.41;5016484;28;20060;-51
2022/06/08 05:18:41;;;;;;;61.63;26.15;;;;;;;14.77;100.00;100767.84;5015772;28;20032;-48
2022/06/08 05:21:06;;;;;;;57.00;25.85;;;;;;;14.83;100.00;100767.06;5015714;28;20554;-49
2022/06/08 05:23:38;;;;;;;67.88;25.70;;;;;;;14.84;100.00;100754.47;5020100;28;20036;-48
2022/06/08 05:26:04;;;;;;;53.75;23.90;;;;;;;14.87;100.00;100759.47;5024448;28;20029;-45
2022/06/08 05:28:29;;;;;;;53.55;23.83;;;;;;;14.85;100.00;100745.38;5017914;28;20076;-51
2022/06/08 05:30:56;;;;;;;52.30;22.02;;;;;;;14.87;100.00;100748.72;5025193;28;20096;-48
2022/06/08 05:33:26;;;;;;;53.55;22.73;;;;;;;14.87;100.00;100737.97;5022489;28;20460;-49
2022/06/08 05:35:53;;;;;;;49.50;22.23;;;;;;;14.90;100.00;100734.88;5008356;28;20021;-50
2022/06/08 05:38:18;;;;;;;49.72;21.52;;;;;;;14.90;100.00;100733.03;5032212;28;20028;-46
2022/06/08 05:40:43;;;;;;;43.75;20.80;;;;;;;14.92;100.00;100732.84;5037755;28;20032;-46
2022/06/08 05:43:12;;;;;;;43.70;20.80;;;;;;;14.91;100.00;100726.63;5026582;28;20093;-51
2022/06/08 05:45:39;;;;;;;50.15;21.52;;;;;;;14.99;100.00;100727.53;5025625;28;20481;-49
2022/06/08 05:48:05;;;;;;;45.05;20.30;;;;;;;15.02;100.00;100727.97;5016852;28;20057;-49
2022/06/08 05:50:31;;;;;;;50.17;20.60;;;;;;;15.10;100.00;100733.22;5019662;28;20199;-51
2022/06/08 05:52:56;;;;;;;38.20;19.23;;;;;;;15.15;100.00;100727.25;5018668;28;20514;-48
2022/06/08 05:55:23;;;;;;;42.15;20.80;;;;;;;15.25;100.00;100727.72;5019060;28;20049;-47
2022/06/08 05:57:51;;;;;;;40.00;19.30;;;;;;;15.28;100.00;100721.97;5016820;28;20031;-47
2022/06/08 06:00:21;;;;;;;42.22;19.70;;;;;;;15.33;100.00;100723.25;5018824;28;20033;-47
2022/06/08 06:02:46;;;;;;;40.10;19.25;;;;;;;15.42;100.00;100725.59;5017371;28;20104;-50
2022/06/08 06:05:14;;;;;;;45.65;21.10;;;;;;;15.51;100.00;100715.50;5019408;28;20116;-50
2022/06/08 06:07:42;;;;;;;43.20;19.73;;;;;;;15.57;100.00;100711.19;5016931;28;20038;-46
2022/06/08 06:10:08;;;;;;;38.20;19.80;;;;;;;15.67;100.00;100715.19;5018546;28;20172;-48
2022/06/08 06:12:34;;;;;;;36.55;18.92;;;;;;;15.75;100.00;100714.25;5018861;28;20449;-49
2022/06/08 06:15:00;;;;;;;35.80;18.30;;;;;;;15.82;100.00;100703.50;5019950;28;20021;-49
2022/06/08 06:17:26;;;;;;;37.20;18.42;;;;;;;15.84;100.00;100709.53;5018926;28;20103;-47
2022/06/08 06:19:51;;;;;;;31.23;17.05;;;;;;;15.90;100.00;100705.19;5020505;28;20086;-48
2022/06/08 06:22:16;;;;;;;34.67;17.52;;;;;;;15.92;100.00;100716.59;5019114;28;20021;-45
2022/06/08 06:24:42;;;;;;;36.35;17.40;;;;;;;15.95;100.00;100714.31;5020357;28;20160;-46
2022/06/08 06:27:07;;;;;;;30.48;16.67;;;;;;;15.96;100.00;100720.56;5019764;28;20484;-46
2022/06/08 06:29:33;;;;;;;32.80;16.02;;;;;;;15.93;100.00;100712.88;5015913;28;20488;-49
2022/06/08 06:32:05;;;;;;;39.55;16.15;;;;;;;15.97;100.00;100717.69;5018561;28;20026;-46
2022/06/08 06:34:31;;;;;;;31.48;15.05;;;;;;;16.00;100.00;100711.03;5020001;28;20060;-49
2022/06/08 06:36:58;;;;;;;27.20;14.82;;;;;;;16.02;100.00;100715.22;5019727;28;20038;-48
2022/06/08 06:39:26;;;;;;;28.85;14.68;;;;;;;16.02;100.00;100717.91;5012747;28;20730;-48
2022/06/08 06:41:52;;;;;;;30.10;13.82;;;;;;;16.08;100.00;100724.34;5019717;28;20533;-49
2022/06/08 06:44:18;;;;;;;28.13;13.88;;;;;;;16.10;100.00;100722.28;5019341;28;20021;-49
2022/06/08 06:46:43;;;;;;;22.67;12.48;;;;;;;16.18;100.00;100730.19;5020917;28;20811;-48
2022/06/08 06:49:09;;;;;;;30.35;13.38;;;;;;;16.30;100.00;100716.16;5018704;28;20025;-50
2022/06/08 06:51:35;;;;;;;26.80;12.48;;;;;;;16.42;100.00;100715.34;5019367;28;20529;-49
2022/06/08 06:54:02;;;;;;;26.98;12.10;;;;;;;16.51;100.00;100715.16;5017861;28;20096;-50
2022/06/08 06:56:27;;;;;;;30.48;11.88;;;;;;;16.62;100.00;100708.38;5019223;28;20021;-51
2022/06/08 06:58:53;;;;;;;25.25;11.70;;;;;;;16.75;100.00;100700.28;5010939;28;20033;-48
2022/06/08 07:01:19;;;;;;;25.17;11.10;;;;;;;16.85;100.00;100691.81;5018080;28;20276;-51
2022/06/08 07:03:45;;;;;;;26.52;12.00;;;;;;;16.93;100.00;100697.00;5026890;28;20032;-49
2022/06/08 07:06:10;;;;;;;23.92;10.57;;;;;;;17.04;100.00;100698.25;5029988;28;20545;-49
2022/06/08 07:08:37;;;;;;;25.60;10.80;;;;;;;17.22;100.00;100695.75;5015654;28;20116;-47
2022/06/08 07:13:49;;;;;;;17.52;9.57;;;;;;;17.43;100.00;100685.75;5016720;28;20076;-50
2022/06/08 07:16:14;;;;;;;25.98;9.80;;;;;;;17.37;100.00;100684.75;5018445;28;20392;-47
2022/06/08 07:18:39;;;;;;;20.05;9.88;;;;;;;17.46;100.00;100685.34;5017224;28;20037;-47
2022/06/08 07:21:05;;;;;;;21.60;9.70;;;;;;;17.55;100.00;100683.25;5015153;28;20030;-49
2022/06/08 07:23:30;;;;;;;26.98;10.60;;;;;;;17.77;100.00;100684.66;5018823;28;20037;-49
2022/06/08 07:25:56;;;;;;;26.40;10.43;;;;;;;17.78;100.00;100682.78;5019575;28;20400;-49
2022/06/08 07:28:22;;;;;;;23.88;10.15;;;;;;;17.87;100.00;100685.06;5017035;28;20076;-49
2022/06/08 07:30:47;;;;;;;18.63;8.70;;;;;;;17.87;100.00;100679.66;5017299;28;20040;-46
2022/06/08 07:33:12;;;;;;;29.15;9.23;;;;;;;17.80;100.00;100681.50;5016997;28;20582;-46
2022/06/08 07:35:38;;;;;;;24.13;9.15;;;;;;;17.81;100.00;100685.88;5020961;28;20179;-47
2022/06/08 07:38:03;;;;;;;17.60;8.40;;;;;;;17.80;100.00;100672.59;5018187;28;20800;-47
2022/06/08 07:40:29;;;;;;;22.05;8.38;;;;;;;17.83;100.00;100664.06;5027329;28;20097;-50
2022/06/08 07:42:54;;;;;;;24.88;8.43;;;;;;;17.94;100.00;100671.53;5018367;28;20030;-49
2022/06/08 07:45:19;;;;;;;19.10;8.15;;;;;;;18.10;100.00;100664.81;5012925;28;20030;-51
2022/06/08 07:50:29;;;;;;;14.82;8.07;;;;;;;18.15;100.00;100673.09;5016757;28;20147;-49
2022/06/08 07:52:55;;;;;;;16.60;7.38;;;;;;;18.38;100.00;100660.91;5025737;28;20032;-49
2022/06/08 07:55:21;;;;;;;18.27;7.45;;;;;;;18.57;100.00;100672.66;5016324;28;20068;-48
2022/06/08 07:57:47;;;;;;;16.02;7.28;;;;;;;18.60;100.00;100667.66;5017679;28;20067;-47
2022/06/08 08:00:14;;;;;;;21.33;7.75;;;;;;;18.56;100.00;100668.28;5019178;28;20053;-49
2022/06/08 08:02:41;;;;;;;15.90;7.63;;;;;;;18.52;100.00;100667.09;5027444;28;20029;-51
2022/06/08 08:05:11;;;;;;;22.05;7.43;;;;;;;18.50;100.00;100677.28;5024163;28;20089;-50
2022/06/08 08:07:38;;;;;;;21.95;7.22;;;;;;;18.42;100.00;100678.38;5030045;28;20052;-50
2022/06/08 08:10:06;;;;;;;23.23;7.40;;;;;;;18.37;100.00;100681.72;5028494;28;20033;-49
2022/06/08 08:12:32;;;;;;;18.77;7.60;;;;;;;18.34;100.00;100674.03;5030647;28;20086;-50
2022/06/08 08:14:57;;;;;;;22.15;7.32;;;;;;;18.38;100.00;100675.28;5023923;28;20033;-50
2022/06/08 08:17:22;;;;;;;22.30;7.32;;;;;;;18.39;100.00;100671.50;5019816;28;20025;-51
2022/06/08 08:19:48;;;;;;;20.92;6.88;;;;;;;18.39;100.00;100671.50;5024448;28;20024;-48
2022/06/08 08:22:15;;;;;;;22.02;7.80;;;;;;;18.40;100.00;100669.66;5029357;28;20029;-49
2022/06/08 08:24:41;;;;;;;22.80;7.65;;;;;;;18.44;100.00;100668.16;5025654;28;20376;-48
2022/06/08 08:27:06;;;;;;;22.20;7.68;;;;;;;18.55;100.00;100667.47;5032533;28;20039;-49
2022/06/08 08:29:32;;;;;;;25.25;7.82;;;;;;;18.55;100.00;100672.03;5024309;28;20052;-49
2022/06/08 08:31:58;;;;;;;14.85;5.88;;;;;;;18.56;100.00;100671.81;5017208;28;20455;-49
2022/06/08 08:34:23;;;;;;;26.17;6.72;;;;;;;18.46;100.00;100671.47;5017286;28;20056;-50
2022/06/08 08:36:49;;;;;;;21.23;6.88;;;;;;;18.32;100.00;100678.00;5016637;28;20057;-49
2022/06/08 08:39:15;;;;;;;16.42;6.85;;;;;;;18.32;100.00;100673.44;5015325;28;20057;-48
2022/06/08 08:44:38;;;;;;;14.75;6.55;;;;;;;18.17;100.00;100668.31;5016655;28;20854;-49
2022/06/08 08:47:18;;;;;;;19.17;6.93;;;;;;;18.11;100.00;100666.47;5014084;28;20433;-47
2022/06/08 08:50:10;;;;;;;18.63;6.82;;;;;;;18.09;100.00;100673.94;5018877;28;20876;-50
2022/06/08 08:52:41;;;;;;;28.33;7.13;;;;;;;18.03;100.00;100664.03;5017166;28;20738;-49
2022/06/08 08:55:40;;;;;;;22.77;6.65;;;;;;;18.00;100.00;100672.56;5017754;28;20125;-49
2022/06/08 08:58:16;;;;;;;21.77;6.82;;;;;;;17.99;100.00;100669.03;5017357;28;20037;-51
2022/06/08 09:01:31;;;;;;;22.40;7.00;;;;;;;17.95;100.00;100672.38;5018267;28;20048;-49
2022/06/08 09:04:02;;;;;;;19.42;6.82;;;;;;;17.98;100.00;100680.88;5018071;28;20062;-52
2022/06/08 09:06:31;;;;;;;21.48;7.32;;;;;;;17.94;100.00;100673.41;5017427;28;20057;-49
2022/06/08 09:09:00;;;;;;;26.42;7.18;;;;;;;17.92;100.00;100676.31;5016042;28;20109;-49
2022/06/08 09:11:32;;;;;;;23.73;6.03;;;;;;;17.98;100.00;100677.34;5021822;28;20108;-48
2022/06/08 09:14:08;;;;;;;18.73;6.30;;;;;;;17.99;100.00;100676.28;5015706;28;20056;-47
2022/06/08 09:16:47;;;;;;;24.88;6.25;;;;;;;18.01;100.00;100683.16;5020448;28;20023;-49
2022/06/08 09:19:21;;;;;;;17.65;6.30;;;;;;;18.01;100.00;100679.63;5011587;28;20041;-50
2022/06/08 09:21:50;;;;;;;17.95;6.70;;;;;;;17.95;100.00;100681.28;5019861;28;20118;-52
2022/06/08 09:24:37;;;;;;;22.05;6.25;;;;;;;17.81;100.00;100675.09;5019286;28;20764;-50
2022/06/08 09:27:13;;;;;;;27.33;6.70;;;;;;;17.67;100.00;100678.88;5019681;28;20025;-48
2022/06/08 09:29:47;;;;;;;23.15;6.70;;;;;;;17.58;100.00;100677.44;5019513;28;20603;-51
2022/06/08 09:32:27;;;;;;;24.30;6.38;;;;;;;17.57;100.00;100684.72;5018975;28;20060;-49
2022/06/08 09:35:00;;;;;;;30.58;7.53;;;;;;;17.45;100.00;100681.81;5021254;28;20029;-48
2022/06/08 09:37:27;;;;;;;22.98;6.57;;;;;;;17.28;100.00;100678.75;5020975;28;20376;-50
2022/06/08 09:39:55;;;;;;;23.27;6.55;;;;;;;17.14;100.00;100686.03;5012864;28;20095;-50
2022/06/08 09:42:38;;;;;;;23.08;6.22;;;;;;;17.06;100.00;100677.31;5020745;28;20041;-47
2022/06/08 09:45:22;;;;;;;24.52;6.45;;;;;;;17.05;100.00;100670.25;5020688;28;20025;-48
2022/06/08 09:53:51;;;;;;;23.80;7.95;;;;;;;16.94;100.00;100685.19;5014565;28;20208;-49
2022/06/08 09:56:24;;;;;;;25.95;7.78;;;;;;;16.99;100.00;100677.31;5020785;28;20632;-48
2022/06/08 09:59:01;;;;;;;24.75;7.43;;;;;;;17.00;100.00;100673.56;5020594;28;20053;-49
2022/06/08 10:01:39;;;;;;;27.75;7.90;;;;;;;16.98;100.00;100691.81;5018864;28;20037;-49
2022/06/08 10:04:30;;;;;;;25.05;7.75;;;;;;;16.89;100.00;100690.38;5020212;28;20033;-50
2022/06/08 10:07:07;;;;;;;;;;;;;;;16.89;100.00;100691.22;5020784;28;20033;-52
2022/06/08 10:10:05;;;;;;;29.92;8.18;;;;;;;16.81;100.00;100688.66;5020223;28;19964;-49
2022/06/08 10:12:57;;;;;;;32.92;9.07;;;;;;;16.85;100.00;100683.72;5015648;28;20179;-51
2022/06/08 10:15:24;;;;;;;25.65;8.23;;;;;;;16.90;100.00;100678.53;5020901;28;20221;-49
2022/06/08 10:18:00;;;;;;;26.48;8.05;;;;;;;16.85;100.00;100684.53;5019506;28;20113;-49
2022/06/08 10:20:34;;;;;;;28.33;7.95;;;;;;;16.79;100.00;100683.47;5017748;28;20034;-49
2022/06/08 10:23:11;;;;;;;28.58;7.95;;;;;;;16.75;100.00;100684.09;5017703;28;20461;-49
2022/06/08 10:25:46;;;;;;;33.90;7.55;;;;;;;16.66;100.00;100685.34;5020259;28;20061;-51
2022/06/08 10:28:42;;;;;;;30.92;7.55;;;;;;;16.56;100.00;100681.19;5020231;28;20049;-50
2022/06/08 10:31:35;;;;;;;29.08;7.05;;;;;;;16.45;100.00;100681.78;5020020;28;20034;-49
2022/06/08 10:34:21;;;;;;;31.58;6.65;;;;;;;16.41;100.00;100681.34;5019655;28;20116;-49
2022/06/08 10:36:49;;;;;;;27.08;7.32;;;;;;;16.33;100.00;100678.84;5020007;28;20491;-51
2022/06/08 10:39:15;;;;;;;25.40;6.70;;;;;;;16.26;100.00;100680.69;5028136;28;20032;-49
2022/06/08 10:44:42;;;;;;;25.25;8.43;;;;;;;16.12;100.00;100676.28;5019047;28;20090;-50
2022/06/08 10:47:31;;;;;;;23.27;7.10;;;;;;;16.13;100.00;100686.84;5032726;28;20037;-49
2022/06/08 10:50:00;;;;;;;25.67;7.82;;;;;;;16.15;100.00;100675.88;5028708;28;20046;-49
2022/06/08 10:52:42;;;;;;;26.15;6.78;;;;;;;16.12;100.00;100678.97;5016458;28;20101;-49
2022/06/08 10:55:13;;;;;;;27.70;7.88;;;;;;;16.04;100.00;100677.31;5036308;28;20194;-50
2022/06/08 10:57:44;;;;;;;31.30;7.82;;;;;;;16.03;100.00;100676.44;5036730;28;20043;-50
2022/06/08 11:00:18;;;;;;;;;;;;;;;16.16;100.00;100674.88;5028491;28;20056;-47
2022/06/08 11:03:02;;;;;;;19.80;7.30;;;;;;;16.18;100.00;100673.59;5019138;28;19909;-48
2022/06/08 11:05:30;;;;;;;28.25;7.45;;;;;;;16.27;100.00;100676.94;5024071;28;20036;-52
2022/06/08 11:07:58;;;;;;;26.40;7.78;;;;;;;16.30;100.00;100670.34;5009625;28;20115;-50
2022/06/08 11:10:42;;;;;;;36.97;7.50;;;;;;;16.45;100.00;100664.78;5019794;28;20634;-50
2022/06/08 11:13:22;;;;;;;25.05;6.95;;;;;;;16.56;100.00;100669.56;5014779;28;20025;-49
2022/06/08 11:15:48;;;;;;;26.25;7.45;;;;;;;16.62;100.00;100660.66;5019799;28;20037;-48
2022/06/08 11:18:23;;;;;;;32.20;8.30;;;;;;;16.70;100.00;100660.47;5018454;28;20071;-50
2022/06/08 11:20:58;;;;;;;24.15;7.60;;;;;;;16.75;100.00;100651.72;5030711;28;20287;-50
2022/06/08 11:23:30;;;;;;;24.00;7.35;;;;;;;16.72;100.00;100647.59;5024073;28;20036;-48
2022/06/08 11:26:23;;;;;;;26.77;7.45;;;;;;;16.65;100.00;100643.22;5035484;28;20025;-47
2022/06/08 11:29:22;;;;;;;20.35;6.78;;;;;;;16.56;100.00;100646.13;5027754;28;20044;-51
2022/06/08 11:31:52;;;;;;;26.77;7.35;;;;;;;16.53;100.00;100640.31;5018818;28;20435;-49
2022/06/08 11:34:20;;;;;;;20.95;5.75;;;;;;;16.55;100.00;100636.38;5018122;28;20602;-50
2022/06/08 11:37:04;;;;;;;19.13;5.88;;;;;;;16.53;100.00;100635.75;5019689;28;20104;-49
2022/06/08 11:40:07;;;;;;;24.35;5.70;;;;;;;16.49;100.00;100630.97;5018999;28;20544;-52